sensor_id;sensor_type;location;lat;lon;timestamp;pressure;altitude;pressure_sealevel;temperature;humidity
28027;BME280;15344;52.342;-1.290;2023-03-26T00:00:45;98905.03;;;12.87;87.52
28027;BME280;15344;52.342;-1.290;2023-03-26T00:03:10;98900.08;;;13.82;82.50
28027;BME280;15344;52.342;-1.290;2023-03-26T00:05:35;98896.61;;;13.53;84.53
28027;BME280;15344;52.342;-1.290;2023-03-26T00:08:00;98894.86;;;13.35;85.65
28027;BME280;15344;52.342;-1.290;2023-03-26T00:10:25;98889.08;;;13.28;86.54
28027;BME280;15344;52.342;-1.290;2023-03-26T00:12:51;98887.84;;;13.14;85.74
28027;BME280;15344;52.342;-1.290;2023-03-26T00:15:17;98885.17;;;13.81;84.58
28027;BME280;15344;52.342;-1.290;2023-03-26T00:17:42;98884.39;;;13.57;83.77
28027;BME280;15344;52.342;-1.290;2023-03-26T00:20:08;98879.81;;;13.92;83.31
28027;BME280;15344;52.342;-1.290;2023-03-26T00:22:33;98873.66;;;13.75;84.33
28027;BME280;15344;52.342;-1.290;2023-03-26T00:24:58;98874.01;;;13.56;84.21
28027;BME280;15344;52.342;-1.290;2023-03-26T00:27:23;98872.97;;;13.87;83.50
28027;BME280;15344;52.342;-1.290;2023-03-26T00:29:49;98867.03;;;14.27;80.90
28027;BME280;15344;52.342;-1.290;2023-03-26T00:32:14;98863.24;;;14.07;82.21
28027;BME280;15344;52.342;-1.290;2023-03-26T00:34:39;98863.05;;;14.52;81.75
28027;BME280;15344;52.342;-1.290;2023-03-26T00:37:05;98856.36;;;14.30;81.22
28027;BME280;15344;52.342;-1.290;2023-03-26T00:39:30;98854.60;;;14.13;82.60
28027;BME280;15344;52.342;-1.290;2023-03-26T00:41:55;98844.72;;;14.54;81.63
28027;BME280;15344;52.342;-1.290;2023-03-26T00:44:21;98843.71;;;13.90;83.43
28027;BME280;15344;52.342;-1.290;2023-03-26T00:46:46;98840.47;;;13.35;84.70
28027;BME280;15344;52.342;-1.290;2023-03-26T00:49:12;98843.96;;;12.89;86.29
28027;BME280;15344;52.342;-1.290;2023-03-26T00:51:37;98845.31;;;13.66;84.20
28027;BME280;15344;52.342;-1.290;2023-03-26T00:54:02;98846.87;;;13.75;83.82
28027;BME280;15344;52.342;-1.290;2023-03-26T00:56:28;98841.57;;;14.70;82.00
28027;BME280;15344;52.342;-1.290;2023-03-26T00:58:53;98849.52;;;13.85;83.79
28027;BME280;15344;52.342;-1.290;2023-03-26T01:01:22;98846.93;;;13.60;84.34
28027;BME280;15344;52.342;-1.290;2023-03-26T01:03:44;98846.32;;;13.11;86.82
28027;BME280;15344;52.342;-1.290;2023-03-26T01:06:11;98846.82;;;14.03;84.50
28027;BME280;15344;52.342;-1.290;2023-03-26T01:08:37;98848.11;;;13.58;86.56
28027;BME280;15344;52.342;-1.290;2023-03-26T01:11:03;98845.34;;;13.51;85.91
28027;BME280;15344;52.342;-1.290;2023-03-26T01:13:25;98846.81;;;13.14;86.07
28027;BME280;15344;52.342;-1.290;2023-03-26T01:15:51;98846.92;;;13.61;86.03
28027;BME280;15344;52.342;-1.290;2023-03-26T01:18:18;98845.85;;;13.19;89.24
28027;BME280;15344;52.342;-1.290;2023-03-26T01:20:43;98843.53;;;13.73;86.37
28027;BME280;15344;52.342;-1.290;2023-03-26T01:23:07;98839.69;;;13.89;86.29
28027;BME280;15344;52.342;-1.290;2023-03-26T01:25:39;98839.74;;;13.06;87.44
28027;BME280;15344;52.342;-1.290;2023-03-26T01:27:58;98834.83;;;14.17;85.55
28027;BME280;15344;52.342;-1.290;2023-03-26T01:30:29;98825.63;;;14.59;83.11
28027;BME280;15344;52.342;-1.290;2023-03-26T01:32:54;98821.79;;;14.03;83.70
28027;BME280;15344;52.342;-1.290;2023-03-26T01:35:22;98818.49;;;14.04;83.27
28027;BME280;15344;52.342;-1.290;2023-03-26T01:37:47;98815.66;;;14.52;81.33
28027;BME280;15344;52.342;-1.290;2023-03-26T01:40:10;98810.95;;;14.06;83.27
28027;BME280;15344;52.342;-1.290;2023-03-26T01:42:34;98808.15;;;14.31;82.31
28027;BME280;15344;52.342;-1.290;2023-03-26T01:45:00;98808.17;;;13.55;85.36
28027;BME280;15344;52.342;-1.290;2023-03-26T01:47:22;98805.34;;;13.77;84.51
28027;BME280;15344;52.342;-1.290;2023-03-26T01:49:46;98801.10;;;14.03;84.26
28027;BME280;15344;52.342;-1.290;2023-03-26T01:52:14;98796.67;;;14.00;84.35
28027;BME280;15344;52.342;-1.290;2023-03-26T01:54:36;98798.63;;;13.74;87.00
28027;BME280;15344;52.342;-1.290;2023-03-26T01:57:09;98794.75;;;14.11;86.14
28027;BME280;15344;52.342;-1.290;2023-03-26T01:59:41;98795.80;;;13.93;86.28
28027;BME280;15344;52.342;-1.290;2023-03-26T02:01:57;98791.08;;;13.51;86.03
28027;BME280;15344;52.342;-1.290;2023-03-26T02:04:23;98784.25;;;14.06;84.43
28027;BME280;15344;52.342;-1.290;2023-03-26T02:06:46;98781.00;;;14.10;84.04
28027;BME280;15344;52.342;-1.290;2023-03-26T02:09:12;98775.53;;;14.29;84.10
28027;BME280;15344;52.342;-1.290;2023-03-26T02:11:36;98770.42;;;14.29;83.38
28027;BME280;15344;52.342;-1.290;2023-03-26T02:14:00;98765.42;;;13.40;85.77
28027;BME280;15344;52.342;-1.290;2023-03-26T02:16:25;98761.80;;;14.22;84.92
28027;BME280;15344;52.342;-1.290;2023-03-26T02:18:51;98757.68;;;13.58;85.02
28027;BME280;15344;52.342;-1.290;2023-03-26T02:21:18;98755.67;;;13.60;85.25
28027;BME280;15344;52.342;-1.290;2023-03-26T02:23:42;98755.64;;;13.72;84.63
28027;BME280;15344;52.342;-1.290;2023-03-26T02:26:08;98753.23;;;14.25;84.87
28027;BME280;15344;52.342;-1.290;2023-03-26T02:28:32;98746.89;;;13.76;85.23
28027;BME280;15344;52.342;-1.290;2023-03-26T02:30:57;98745.05;;;14.13;84.18
28027;BME280;15344;52.342;-1.290;2023-03-26T02:33:22;98739.91;;;13.67;85.65
28027;BME280;15344;52.342;-1.290;2023-03-26T02:35:47;98736.26;;;13.90;85.68
28027;BME280;15344;52.342;-1.290;2023-03-26T02:38:12;98731.72;;;14.03;83.91
28027;BME280;15344;52.342;-1.290;2023-03-26T02:40:38;98726.16;;;13.68;84.76
28027;BME280;15344;52.342;-1.290;2023-03-26T02:43:03;98724.51;;;13.77;84.64
28027;BME280;15344;52.342;-1.290;2023-03-26T02:45:29;98719.37;;;13.89;83.91
28027;BME280;15344;52.342;-1.290;2023-03-26T02:47:54;98718.14;;;13.79;85.35
28027;BME280;15344;52.342;-1.290;2023-03-26T02:50:19;98717.38;;;13.09;86.16
28027;BME280;15344;52.342;-1.290;2023-03-26T02:52:45;98709.68;;;13.18;86.44
28027;BME280;15344;52.342;-1.290;2023-03-26T02:55:10;98708.29;;;13.66;87.62
28027;BME280;15344;52.342;-1.290;2023-03-26T02:57:36;98710.01;;;13.08;88.02
28027;BME280;15344;52.342;-1.290;2023-03-26T03:00:01;98710.37;;;12.93;90.69
28027;BME280;15344;52.342;-1.290;2023-03-26T03:02:26;98705.25;;;13.39;87.75
28027;BME280;15344;52.342;-1.290;2023-03-26T03:04:51;98706.05;;;13.74;85.83
28027;BME280;15344;52.342;-1.290;2023-03-26T03:07:17;98704.42;;;13.84;84.86
28027;BME280;15344;52.342;-1.290;2023-03-26T03:09:42;98706.80;;;14.59;83.61
28027;BME280;15344;52.342;-1.290;2023-03-26T03:12:08;98717.31;;;12.25;91.43
28027;BME280;15344;52.342;-1.290;2023-03-26T03:14:34;98709.55;;;13.08;89.10
28027;BME280;15344;52.342;-1.290;2023-03-26T03:16:58;98711.63;;;13.40;89.62
28027;BME280;15344;52.342;-1.290;2023-03-26T03:19:24;98707.07;;;13.38;89.18
28027;BME280;15344;52.342;-1.290;2023-03-26T03:21:49;98712.45;;;11.83;94.91
28027;BME280;15344;52.342;-1.290;2023-03-26T03:24:15;98706.78;;;13.16;90.07
28027;BME280;15344;52.342;-1.290;2023-03-26T03:26:40;98710.06;;;13.05;92.24
28027;BME280;15344;52.342;-1.290;2023-03-26T03:29:05;98712.66;;;12.56;92.91
28027;BME280;15344;52.342;-1.290;2023-03-26T03:31:30;98706.44;;;13.94;87.74
28027;BME280;15344;52.342;-1.290;2023-03-26T03:33:56;98707.79;;;12.47;93.48
28027;BME280;15344;52.342;-1.290;2023-03-26T03:36:22;98703.31;;;13.26;89.29
28027;BME280;15344;52.342;-1.290;2023-03-26T03:38:47;98705.06;;;14.03;86.57
28027;BME280;15344;52.342;-1.290;2023-03-26T03:41:12;98706.83;;;13.35;88.52
28027;BME280;15344;52.342;-1.290;2023-03-26T03:43:37;98703.86;;;13.95;86.44
28027;BME280;15344;52.342;-1.290;2023-03-26T03:46:03;98706.46;;;13.75;85.40
28027;BME280;15344;52.342;-1.290;2023-03-26T03:48:28;98702.62;;;14.14;84.54
28027;BME280;15344;52.342;-1.290;2023-03-26T03:50:54;98699.25;;;14.18;84.04
28027;BME280;15344;52.342;-1.290;2023-03-26T03:53:19;98698.91;;;13.86;84.94
28027;BME280;15344;52.342;-1.290;2023-03-26T03:55:44;98698.61;;;13.39;87.85
28027;BME280;15344;52.342;-1.290;2023-03-26T03:58:10;98697.77;;;12.77;89.44
28027;BME280;15344;52.342;-1.290;2023-03-26T04:00:35;98697.58;;;13.58;87.52
28027;BME280;15344;52.342;-1.290;2023-03-26T04:03:01;98695.80;;;14.16;84.99
28027;BME280;15344;52.342;-1.290;2023-03-26T04:05:26;98695.47;;;14.12;86.37
28027;BME280;15344;52.342;-1.290;2023-03-26T04:07:52;98694.13;;;14.03;85.67
28027;BME280;15344;52.342;-1.290;2023-03-26T04:10:17;98693.80;;;14.43;83.43
28027;BME280;15344;52.342;-1.290;2023-03-26T04:12:43;98692.68;;;14.36;82.12
28027;BME280;15344;52.342;-1.290;2023-03-26T04:15:09;98689.08;;;13.19;87.50
28027;BME280;15344;52.342;-1.290;2023-03-26T04:17:34;98690.58;;;12.77;89.77
28027;BME280;15344;52.342;-1.290;2023-03-26T04:19:59;98690.87;;;13.77;87.97
28027;BME280;15344;52.342;-1.290;2023-03-26T04:22:25;98699.04;;;11.88;93.44
28027;BME280;15344;52.342;-1.290;2023-03-26T04:24:50;98696.07;;;12.83;89.12
28027;BME280;15344;52.342;-1.290;2023-03-26T04:27:18;98694.08;;;13.35;87.85
28027;BME280;15344;52.342;-1.290;2023-03-26T04:29:43;98696.70;;;12.90;91.76
28027;BME280;15344;52.342;-1.290;2023-03-26T04:32:09;98697.02;;;12.35;91.11
28027;BME280;15344;52.342;-1.290;2023-03-26T04:34:33;98692.87;;;14.08;86.88
28027;BME280;15344;52.342;-1.290;2023-03-26T04:36:57;98694.42;;;13.77;86.21
28027;BME280;15344;52.342;-1.290;2023-03-26T04:39:22;98688.47;;;13.13;88.50
28027;BME280;15344;52.342;-1.290;2023-03-26T04:41:47;98690.76;;;13.17;89.07
28027;BME280;15344;52.342;-1.290;2023-03-26T04:44:13;98690.44;;;12.75;91.90
28027;BME280;15344;52.342;-1.290;2023-03-26T04:46:38;98688.32;;;13.23;90.45
28027;BME280;15344;52.342;-1.290;2023-03-26T04:49:03;98686.31;;;13.49;87.74
28027;BME280;15344;52.342;-1.290;2023-03-26T04:51:35;98683.98;;;13.09;90.25
28027;BME280;15344;52.342;-1.290;2023-03-26T04:53:56;98683.15;;;12.76;90.87
28027;BME280;15344;52.342;-1.290;2023-03-26T04:56:29;98689.01;;;12.59;90.03
28027;BME280;15344;52.342;-1.290;2023-03-26T04:58:45;98690.04;;;11.85;96.45
28027;BME280;15344;52.342;-1.290;2023-03-26T05:01:10;98691.33;;;12.64;93.44
28027;BME280;15344;52.342;-1.290;2023-03-26T05:03:36;98685.49;;;13.01;90.72
28027;BME280;15344;52.342;-1.290;2023-03-26T05:06:01;98683.40;;;13.25;89.72
28027;BME280;15344;52.342;-1.290;2023-03-26T05:08:27;98677.31;;;13.26;89.59
28027;BME280;15344;52.342;-1.290;2023-03-26T05:10:52;98676.67;;;13.84;88.07
28027;BME280;15344;52.342;-1.290;2023-03-26T05:13:17;98680.25;;;13.52;90.03
28027;BME280;15344;52.342;-1.290;2023-03-26T05:15:42;98687.78;;;12.45;95.47
28027;BME280;15344;52.342;-1.290;2023-03-26T05:18:08;98695.87;;;11.85;99.98
28027;BME280;15344;52.342;-1.290;2023-03-26T05:20:34;98697.08;;;12.41;97.29
28027;BME280;15344;52.342;-1.290;2023-03-26T05:22:59;98695.00;;;11.75;99.25
28027;BME280;15344;52.342;-1.290;2023-03-26T05:25:24;98700.16;;;11.50;100.00
28027;BME280;15344;52.342;-1.290;2023-03-26T05:27:50;98698.93;;;10.93;100.00
28027;BME280;15344;52.342;-1.290;2023-03-26T05:30:17;98701.37;;;11.58;100.00
28027;BME280;15344;52.342;-1.290;2023-03-26T05:32:40;98704.58;;;10.12;100.00
28027;BME280;15344;52.342;-1.290;2023-03-26T05:35:07;98709.20;;;11.27;100.00
28027;BME280;15344;52.342;-1.290;2023-03-26T05:37:31;98709.25;;;10.57;100.00
28027;BME280;15344;52.342;-1.290;2023-03-26T05:39:57;98711.61;;;11.13;100.00
28027;BME280;15344;52.342;-1.290;2023-03-26T05:42:22;98717.99;;;11.29;100.00
28027;BME280;15344;52.342;-1.290;2023-03-26T05:44:47;98719.87;;;10.43;100.00
28027;BME280;15344;52.342;-1.290;2023-03-26T05:47:12;98720.33;;;11.33;100.00
28027;BME280;15344;52.342;-1.290;2023-03-26T05:49:38;98722.30;;;11.25;100.00
28027;BME280;15344;52.342;-1.290;2023-03-26T05:52:04;98721.69;;;10.41;100.00
28027;BME280;15344;52.342;-1.290;2023-03-26T05:54:29;98727.15;;;10.97;100.00
28027;BME280;15344;52.342;-1.290;2023-03-26T05:56:54;98727.26;;;11.29;100.00
28027;BME280;15344;52.342;-1.290;2023-03-26T05:59:19;98727.29;;;10.79;100.00
28027;BME280;15344;52.342;-1.290;2023-03-26T06:01:45;98732.07;;;8.42;100.00
28027;BME280;15344;52.342;-1.290;2023-03-26T06:04:11;98736.27;;;9.63;100.00
28027;BME280;15344;52.342;-1.290;2023-03-26T06:06:35;98736.98;;;9.82;100.00
28027;BME280;15344;52.342;-1.290;2023-03-26T06:09:01;98738.88;;;9.78;100.00
28027;BME280;15344;52.342;-1.290;2023-03-26T06:11:26;98741.55;;;8.48;100.00
28027;BME280;15344;52.342;-1.290;2023-03-26T06:13:51;98742.08;;;9.07;100.00
28027;BME280;15344;52.342;-1.290;2023-03-26T06:16:17;98751.22;;;8.28;100.00
28027;BME280;15344;52.342;-1.290;2023-03-26T06:18:42;98746.31;;;9.14;100.00
28027;BME280;15344;52.342;-1.290;2023-03-26T06:21:08;98754.19;;;8.95;100.00
28027;BME280;15344;52.342;-1.290;2023-03-26T06:23:33;98759.95;;;9.74;100.00
28027;BME280;15344;52.342;-1.290;2023-03-26T06:25:59;98761.72;;;10.04;100.00
28027;BME280;15344;52.342;-1.290;2023-03-26T06:28:24;98761.39;;;9.57;100.00
28027;BME280;15344;52.342;-1.290;2023-03-26T06:30:50;98769.15;;;8.59;100.00
28027;BME280;15344;52.342;-1.290;2023-03-26T06:33:14;98772.19;;;8.45;100.00
28027;BME280;15344;52.342;-1.290;2023-03-26T06:35:40;98767.72;;;9.31;100.00
28027;BME280;15344;52.342;-1.290;2023-03-26T06:38:05;98774.80;;;9.18;100.00
28027;BME280;15344;52.342;-1.290;2023-03-26T06:40:32;98777.88;;;8.79;100.00
28027;BME280;15344;52.342;-1.290;2023-03-26T06:42:56;98776.43;;;9.63;100.00
28027;BME280;15344;52.342;-1.290;2023-03-26T06:45:22;98788.15;;;9.47;100.00
28027;BME280;15344;52.342;-1.290;2023-03-26T06:47:47;98794.93;;;7.18;100.00
28027;BME280;15344;52.342;-1.290;2023-03-26T06:50:12;98796.97;;;7.81;100.00
28027;BME280;15344;52.342;-1.290;2023-03-26T06:52:38;98802.28;;;7.74;100.00
28027;BME280;15344;52.342;-1.290;2023-03-26T06:55:04;98806.24;;;7.43;100.00
28027;BME280;15344;52.342;-1.290;2023-03-26T06:57:28;98809.46;;;7.86;100.00
28027;BME280;15344;52.342;-1.290;2023-03-26T06:59:54;98818.71;;;8.25;100.00
28027;BME280;15344;52.342;-1.290;2023-03-26T07:02:19;98818.90;;;8.08;100.00
28027;BME280;15344;52.342;-1.290;2023-03-26T07:04:44;98824.07;;;7.62;100.00
28027;BME280;15344;52.342;-1.290;2023-03-26T07:07:10;98830.77;;;6.79;100.00
28027;BME280;15344;52.342;-1.290;2023-03-26T07:09:35;98834.97;;;9.03;100.00
28027;BME280;15344;52.342;-1.290;2023-03-26T07:12:01;98833.48;;;6.99;100.00
28027;BME280;15344;52.342;-1.290;2023-03-26T07:14:27;98841.27;;;8.24;100.00
28027;BME280;15344;52.342;-1.290;2023-03-26T07:16:51;98847.58;;;7.67;100.00
28027;BME280;15344;52.342;-1.290;2023-03-26T07:19:17;98852.39;;;6.66;100.00
28027;BME280;15344;52.342;-1.290;2023-03-26T07:21:44;98858.25;;;7.03;100.00
28027;BME280;15344;52.342;-1.290;2023-03-26T07:24:10;98863.14;;;7.95;100.00
28027;BME280;15344;52.342;-1.290;2023-03-26T07:26:40;98865.10;;;7.42;100.00
28027;BME280;15344;52.342;-1.290;2023-03-26T07:29:12;98870.05;;;6.73;100.00
28027;BME280;15344;52.342;-1.290;2023-03-26T07:31:28;98875.21;;;7.31;100.00
28027;BME280;15344;52.342;-1.290;2023-03-26T07:33:56;98880.62;;;7.01;100.00
28027;BME280;15344;52.342;-1.290;2023-03-26T07:36:22;98882.91;;;6.41;100.00
28027;BME280;15344;52.342;-1.290;2023-03-26T07:38:52;98890.34;;;7.26;100.00
28027;BME280;15344;52.342;-1.290;2023-03-26T07:41:12;98891.02;;;6.84;100.00
28027;BME280;15344;52.342;-1.290;2023-03-26T07:43:44;98899.68;;;6.89;100.00
28027;BME280;15344;52.342;-1.290;2023-03-26T07:45:58;98903.65;;;7.32;100.00
28027;BME280;15344;52.342;-1.290;2023-03-26T07:48:25;98903.75;;;8.70;100.00
28027;BME280;15344;52.342;-1.290;2023-03-26T07:50:48;98909.00;;;7.84;100.00
28027;BME280;15344;52.342;-1.290;2023-03-26T07:53:14;98911.98;;;8.16;100.00
28027;BME280;15344;52.342;-1.290;2023-03-26T07:55:46;98914.66;;;8.02;100.00
28027;BME280;15344;52.342;-1.290;2023-03-26T07:58:18;98923.88;;;7.67;100.00
28027;BME280;15344;52.342;-1.290;2023-03-26T08:00:34;98927.81;;;7.42;100.00
28027;BME280;15344;52.342;-1.290;2023-03-26T08:05:23;98939.31;;;7.10;100.00
28027;BME280;15344;52.342;-1.290;2023-03-26T08:07:55;98951.70;;;7.72;100.00
28027;BME280;15344;52.342;-1.290;2023-03-26T08:10:16;98948.80;;;7.12;100.00
28027;BME280;15344;52.342;-1.290;2023-03-26T08:12:44;98954.62;;;7.02;100.00
28027;BME280;15344;52.342;-1.290;2023-03-26T08:15:07;98958.20;;;7.87;100.00
28027;BME280;15344;52.342;-1.290;2023-03-26T08:17:32;98962.56;;;6.52;100.00
28027;BME280;15344;52.342;-1.290;2023-03-26T08:20:01;98970.34;;;7.18;100.00
28027;BME280;15344;52.342;-1.290;2023-03-26T08:22:22;98977.29;;;6.42;100.00
28027;BME280;15344;52.342;-1.290;2023-03-26T08:24:52;98983.76;;;7.48;100.00
28027;BME280;15344;52.342;-1.290;2023-03-26T08:27:14;98989.62;;;6.97;100.00
28027;BME280;15344;52.342;-1.290;2023-03-26T08:29:40;98996.89;;;7.17;100.00
28027;BME280;15344;52.342;-1.290;2023-03-26T08:32:02;99003.99;;;6.98;100.00
28027;BME280;15344;52.342;-1.290;2023-03-26T08:34:25;99008.55;;;6.53;100.00
28027;BME280;15344;52.342;-1.290;2023-03-26T08:36:51;99010.75;;;7.26;100.00
28027;BME280;15344;52.342;-1.290;2023-03-26T08:39:16;99024.97;;;6.01;100.00
28027;BME280;15344;52.342;-1.290;2023-03-26T08:41:56;99024.41;;;6.75;100.00
28027;BME280;15344;52.342;-1.290;2023-03-26T08:44:21;99035.56;;;5.99;100.00
28027;BME280;15344;52.342;-1.290;2023-03-26T08:46:46;99051.82;;;5.74;100.00
28027;BME280;15344;52.342;-1.290;2023-03-26T08:56:22;99053.70;;;7.07;100.00
28027;BME280;15344;52.342;-1.290;2023-03-26T08:58:54;99072.02;;;6.20;100.00
28027;BME280;15344;52.342;-1.290;2023-03-26T09:10:52;99099.35;;;6.49;100.00
28027;BME280;15344;52.342;-1.290;2023-03-26T09:13:26;99105.29;;;6.06;100.00
28027;BME280;15344;52.342;-1.290;2023-03-26T09:18:14;99122.30;;;6.13;100.00
28027;BME280;15344;52.342;-1.290;2023-03-26T09:35:12;99149.35;;;5.95;100.00
28027;BME280;15344;52.342;-1.290;2023-03-26T09:37:36;99155.13;;;6.16;100.00
28027;BME280;15344;52.342;-1.290;2023-03-26T09:40:02;99162.34;;;6.57;100.00
28027;BME280;15344;52.342;-1.290;2023-03-26T09:42:24;99167.21;;;6.32;100.00
28027;BME280;15344;52.342;-1.290;2023-03-26T09:49:45;99182.54;;;6.16;100.00
28027;BME280;15344;52.342;-1.290;2023-03-26T09:54:37;99197.52;;;7.54;100.00
28027;BME280;15344;52.342;-1.290;2023-03-26T09:56:55;99205.12;;;6.65;100.00
28027;BME280;15344;52.342;-1.290;2023-03-26T09:59:27;99205.77;;;7.71;100.00
28027;BME280;15344;52.342;-1.290;2023-03-26T10:01:48;99210.81;;;7.80;100.00
28027;BME280;15344;52.342;-1.290;2023-03-26T10:06:41;99225.43;;;7.04;100.00
28027;BME280;15344;52.342;-1.290;2023-03-26T10:09:13;99231.71;;;6.06;100.00
28027;BME280;15344;52.342;-1.290;2023-03-26T10:11:32;99239.11;;;7.25;100.00
28027;BME280;15344;52.342;-1.290;2023-03-26T10:13:59;99242.88;;;6.62;100.00
28027;BME280;15344;52.342;-1.290;2023-03-26T10:16:22;99253.28;;;8.40;100.00
28027;BME280;15344;52.342;-1.290;2023-03-26T10:18:50;99262.46;;;7.25;100.00
28027;BME280;15344;52.342;-1.290;2023-03-26T10:21:10;99266.97;;;7.16;100.00
28027;BME280;15344;52.342;-1.290;2023-03-26T10:23:41;99271.05;;;6.88;100.00
28027;BME280;15344;52.342;-1.290;2023-03-26T10:26:05;99276.74;;;7.32;100.00
28027;BME280;15344;52.342;-1.290;2023-03-26T10:28:35;99283.13;;;7.22;100.00
28027;BME280;15344;52.342;-1.290;2023-03-26T10:30:57;99283.46;;;7.73;100.00
28027;BME280;15344;52.342;-1.290;2023-03-26T10:33:21;99288.34;;;6.87;100.00
28027;BME280;15344;52.342;-1.290;2023-03-26T10:35:47;99298.95;;;7.05;100.00
28027;BME280;15344;52.342;-1.290;2023-03-26T10:38:13;99298.85;;;7.46;100.00
28027;BME280;15344;52.342;-1.290;2023-03-26T10:40:31;99309.65;;;7.42;100.00
28027;BME280;15344;52.342;-1.290;2023-03-26T10:43:09;99312.82;;;8.39;100.00
28027;BME280;15344;52.342;-1.290;2023-03-26T10:45:30;99322.65;;;8.29;100.00
28027;BME280;15344;52.342;-1.290;2023-03-26T10:47:54;99323.92;;;7.37;100.00
28027;BME280;15344;52.342;-1.290;2023-03-26T10:50:22;99335.57;;;6.53;100.00
28027;BME280;15344;52.342;-1.290;2023-03-26T10:52:38;99336.79;;;7.83;100.00
28027;BME280;15344;52.342;-1.290;2023-03-26T10:55:09;99345.93;;;7.36;100.00
28027;BME280;15344;52.342;-1.290;2023-03-26T10:57:34;99350.75;;;7.38;100.00
28027;BME280;15344;52.342;-1.290;2023-03-26T10:59:53;99362.67;;;7.80;100.00
28027;BME280;15344;52.342;-1.290;2023-03-26T11:02:26;99366.56;;;7.99;100.00
28027;BME280;15344;52.342;-1.290;2023-03-26T11:04:46;99368.98;;;8.25;100.00
28027;BME280;15344;52.342;-1.290;2023-03-26T11:07:16;99375.02;;;9.64;100.00
28027;BME280;15344;52.342;-1.290;2023-03-26T11:09:37;99384.98;;;7.36;100.00
28027;BME280;15344;52.342;-1.290;2023-03-26T11:12:04;99388.04;;;8.25;100.00
28027;BME280;15344;52.342;-1.290;2023-03-26T11:14:27;99389.68;;;8.04;100.00
28027;BME280;15344;52.342;-1.290;2023-03-26T11:16:56;99402.18;;;8.52;100.00
28027;BME280;15344;52.342;-1.290;2023-03-26T11:19:19;99404.65;;;9.05;100.00
28027;BME280;15344;52.342;-1.290;2023-03-26T11:21:45;99418.66;;;8.10;100.00
28027;BME280;15344;52.342;-1.290;2023-03-26T11:26:37;99419.83;;;8.87;100.00
28027;BME280;15344;52.342;-1.290;2023-03-26T11:29:12;99432.24;;;8.77;100.00
28027;BME280;15344;52.342;-1.290;2023-03-26T11:31:27;99436.69;;;7.31;100.00
28027;BME280;15344;52.342;-1.290;2023-03-26T11:33:50;99442.98;;;7.62;100.00
28027;BME280;15344;52.342;-1.290;2023-03-26T11:36:14;99447.32;;;7.64;100.00
28027;BME280;15344;52.342;-1.290;2023-03-26T11:38:40;99455.93;;;8.42;100.00
28027;BME280;15344;52.342;-1.290;2023-03-26T11:41:04;99458.13;;;9.08;100.00
28027;BME280;15344;52.342;-1.290;2023-03-26T11:43:33;99462.26;;;8.03;100.00
28027;BME280;15344;52.342;-1.290;2023-03-26T11:45:54;99463.40;;;7.81;100.00
28027;BME280;15344;52.342;-1.290;2023-03-26T11:48:24;99473.65;;;8.36;100.00
28027;BME280;15344;52.342;-1.290;2023-03-26T11:50:48;99472.98;;;8.09;100.00
28027;BME280;15344;52.342;-1.290;2023-03-26T11:53:12;99474.80;;;7.87;100.00
28027;BME280;15344;52.342;-1.290;2023-03-26T11:55:38;99480.74;;;8.15;100.00
28027;BME280;15344;52.342;-1.290;2023-03-26T11:58:03;99483.45;;;9.26;100.00
28027;BME280;15344;52.342;-1.290;2023-03-26T12:00:27;99486.97;;;9.97;100.00
28027;BME280;15344;52.342;-1.290;2023-03-26T12:02:56;99490.57;;;8.98;100.00
28027;BME280;15344;52.342;-1.290;2023-03-26T12:05:20;99486.58;;;9.24;100.00
28027;BME280;15344;52.342;-1.290;2023-03-26T12:07:49;99492.14;;;9.20;100.00
28027;BME280;15344;52.342;-1.290;2023-03-26T12:12:38;99510.28;;;8.83;100.00
28027;BME280;15344;52.342;-1.290;2023-03-26T12:15:00;99514.80;;;9.03;100.00
28027;BME280;15344;52.342;-1.290;2023-03-26T12:17:29;99525.72;;;8.57;100.00
28027;BME280;15344;52.342;-1.290;2023-03-26T12:19:50;99526.16;;;10.24;100.00
28027;BME280;15344;52.342;-1.290;2023-03-26T12:22:26;99534.15;;;8.48;100.00
28027;BME280;15344;52.342;-1.290;2023-03-26T12:24:41;99541.70;;;8.30;100.00
28027;BME280;15344;52.342;-1.290;2023-03-26T12:29:32;99558.16;;;9.48;98.19
28027;BME280;15344;52.342;-1.290;2023-03-26T12:32:05;99570.21;;;9.20;100.00
28027;BME280;15344;52.342;-1.290;2023-03-26T12:34:28;99571.61;;;8.70;100.00
28027;BME280;15344;52.342;-1.290;2023-03-26T12:36:51;99576.79;;;8.28;100.00
28027;BME280;15344;52.342;-1.290;2023-03-26T12:39:24;99582.47;;;9.78;96.00
28027;BME280;15344;52.342;-1.290;2023-03-26T12:41:40;99583.21;;;8.94;98.74
28027;BME280;15344;52.342;-1.290;2023-03-26T12:44:16;99591.11;;;8.81;100.00
28027;BME280;15344;52.342;-1.290;2023-03-26T12:46:32;99594.46;;;9.01;95.83
28027;BME280;15344;52.342;-1.290;2023-03-26T12:48:57;99589.05;;;10.43;94.25
28027;BME280;15344;52.342;-1.290;2023-03-26T12:51:29;99603.27;;;9.34;95.12
28027;BME280;15344;52.342;-1.290;2023-03-26T12:53:55;99606.77;;;9.69;97.02
28027;BME280;15344;52.342;-1.290;2023-03-26T12:56:17;99607.17;;;9.14;96.85
28027;BME280;15344;52.342;-1.290;2023-03-26T12:58:49;99610.55;;;9.73;95.86
28027;BME280;15344;52.342;-1.290;2023-03-26T13:01:09;99608.47;;;8.10;97.45
28027;BME280;15344;52.342;-1.290;2023-03-26T13:03:35;99611.55;;;9.73;94.09
28027;BME280;15344;52.342;-1.290;2023-03-26T13:06:01;99618.40;;;9.53;94.24
28027;BME280;15344;52.342;-1.290;2023-03-26T13:10:49;99627.29;;;9.05;90.62
28027;BME280;15344;52.342;-1.290;2023-03-26T13:15:36;99638.01;;;9.19;91.61
28027;BME280;15344;52.342;-1.290;2023-03-26T13:18:09;99639.93;;;8.39;89.94
28027;BME280;15344;52.342;-1.290;2023-03-26T13:20:29;99642.15;;;9.46;92.98
28027;BME280;15344;52.342;-1.290;2023-03-26T13:22:54;99648.46;;;8.55;92.35
28027;BME280;15344;52.342;-1.290;2023-03-26T13:25:26;99656.92;;;9.09;92.20
28027;BME280;15344;52.342;-1.290;2023-03-26T13:27:50;99663.42;;;10.07;91.62
28027;BME280;15344;52.342;-1.290;2023-03-26T13:30:16;99662.51;;;10.55;86.19
28027;BME280;15344;52.342;-1.290;2023-03-26T13:32:42;99668.00;;;9.63;85.82
28027;BME280;15344;52.342;-1.290;2023-03-26T13:35:07;99671.46;;;10.54;85.63
28027;BME280;15344;52.342;-1.290;2023-03-26T13:37:26;99685.62;;;9.61;88.21